Terminal Aerodrome Forecast
Issued by NWS

Home | Current Version | Previous Version | Graphics & Text | Print | Product List | Glossary On
Versions: 1 2 3 4 5 6 7 8 9 10 11 12 13 14 15 16 17 18 19 20 21 22 23 24 25 26 27 28 29 30 31 32 33 34 35 36 37 38 39 40 41 42 43 44 45 46 47 48 49 50
000
FTUS43 KLOT 191725
TAFGYY
TAF
KGYY 191725Z 1918/2018 09012G20KT P6SM SCT040 BKN250
     FM191900 07012KT 6SM BR VCSH BKN040 OVC050
     FM192100 06010KT 5SM -SHRA BR OVC015
     FM200300 35006KT 6SM -SHRA OVC008
     FM200600 24008KT 6SM BR VCSH BKN008 OVC015
     FM201200 25014KT 6SM -SHRA BR BKN008 OVC015
     FM201500 25020G30KT 6SM -SHRA BR SCT008 OVC015=

USA.gov is the U.S. government's official web portal to all federal, state and local government web resources and services.